Time;durP1;ratioP1;P1;durP2;ratioP2;P2;SDS_P1;SDS_P2;PMS_P1;PMS_P2;Temp;Humidity;BMP_temperature;BMP_pressure;BME280_temperature;BME280_humidity;BME280_pressure;Samples;Min_cycle;Max_cycle;Signal;HPM_P1;HPM_P2
2022/06/16 00:00:15;;;;;;;1.55;1.40;;;22.90;57.00;;;;;;5014325;28;20073;-20
2022/06/16 00:02:42;;;;;;;3.63;1.40;;;22.80;56.80;;;;;;5028957;28;20064;-22
2022/06/16 00:05:09;;;;;;;1.88;1.70;;;22.50;57.30;;;;;;5021493;28;20398;-21
2022/06/16 00:07:36;;;;;;;1.50;1.40;;;22.20;58.10;;;;;;5014768;28;20058;-21
2022/06/16 00:10:02;;;;;;;1.55;1.45;;;22.10;58.30;;;;;;5014274;28;20136;-21
2022/06/16 00:12:28;;;;;;;2.95;1.55;;;22.00;58.30;;;;;;5016203;28;20459;-20
2022/06/16 00:14:54;;;;;;;1.50;1.40;;;21.80;58.50;;;;;;5014414;28;20081;-21
2022/06/16 00:17:19;;;;;;;1.80;1.70;;;21.80;58.80;;;;;;5017423;28;20124;-21
2022/06/16 00:19:45;;;;;;;1.50;1.38;;;21.70;59.00;;;;;;5017929;28;20140;-21
2022/06/16 00:22:11;;;;;;;1.77;1.48;;;21.70;59.00;;;;;;5017987;28;20120;-21
2022/06/16 00:24:36;;;;;;;2.58;1.70;;;21.60;59.40;;;;;;5021434;28;20528;-21
2022/06/16 00:27:02;;;;;;;1.50;1.40;;;21.50;59.40;;;;;;5023087;28;20049;-21
2022/06/16 00:29:28;;;;;;;2.05;1.80;;;21.50;59.20;;;;;;5023903;28;20053;-22
2022/06/16 00:31:53;;;;;;;2.28;1.80;;;21.50;59.20;;;;;;4992412;28;20053;-21
2022/06/16 00:34:19;;;;;;;2.58;1.40;;;21.50;59.40;;;;;;5035285;28;20056;-21
2022/06/16 00:36:45;;;;;;;1.92;1.60;;;21.40;59.60;;;;;;5006771;28;20045;-21
2022/06/16 00:39:10;;;;;;;2.03;1.50;;;21.30;59.40;;;;;;4993516;28;20053;-22
2022/06/16 00:41:36;;;;;;;1.60;1.50;;;21.40;60.30;;;;;;5029257;28;20033;-21
2022/06/16 00:44:02;;;;;;;2.08;1.40;;;21.20;60.30;;;;;;5005290;28;20041;-21
2022/06/16 00:46:29;;;;;;;2.40;1.33;;;21.10;60.60;;;;;;5021068;28;20050;-21
2022/06/16 00:49:03;;;;;;;1.33;1.10;;;21.10;60.80;;;;;;5029970;28;20076;-20
2022/06/16 00:52:00;;;;;;;2.08;1.35;;;21.10;60.60;;;;;;5028074;28;20045;-21
2022/06/16 00:54:31;;;;;;;2.30;1.60;;;21.10;60.80;;;;;;5019683;28;20049;-21
2022/06/16 00:57:01;;;;;;;1.27;1.00;;;21.00;60.90;;;;;;5021188;28;20042;-21
2022/06/16 00:59:26;;;;;;;1.55;1.23;;;21.00;61.00;;;;;;5015700;28;20053;-22
2022/06/16 01:01:52;;;;;;;2.92;1.10;;;21.00;61.00;;;;;;5023474;28;20124;-21
2022/06/16 01:07:04;;;;;;;3.13;1.40;;;20.90;61.40;;;;;;5013434;28;20162;-21
2022/06/16 01:09:31;;;;;;;2.00;1.40;;;20.90;61.40;;;;;;5008052;28;20053;-21
2022/06/16 01:15:50;;;;;;;1.98;1.33;;;20.80;61.30;;;;;;5017497;28;20088;-21
2022/06/16 01:18:20;;;;;;;2.22;1.50;;;20.80;61.60;;;;;;5023249;28;20042;-21
2022/06/16 01:21:13;;;;;;;1.35;1.25;;;20.70;61.80;;;;;;5041567;28;20041;-21
2022/06/16 01:23:49;;;;;;;1.20;1.02;;;20.60;61.90;;;;;;5031345;28;20550;-21
2022/06/16 01:26:23;;;;;;;1.50;1.40;;;20.60;62.00;;;;;;5024046;28;20057;-21
2022/06/16 01:29:08;;;;;;;1.50;1.40;;;20.60;62.10;;;;;;5021523;28;20042;-21
2022/06/16 01:31:43;;;;;;;1.77;1.50;;;20.60;62.40;;;;;;5023566;28;20077;-21
2022/06/16 01:34:29;;;;;;;1.50;1.20;;;20.60;62.40;;;;;;5028245;28;20037;-21
2022/06/16 01:37:09;;;;;;;2.25;1.35;;;20.50;62.60;;;;;;5023241;28;20045;-21
2022/06/16 01:39:44;;;;;;;2.42;1.60;;;20.50;62.40;;;;;;5018322;28;20501;-21
2022/06/16 01:42:17;;;;;;;3.10;1.40;;;20.50;63.30;;;;;;5022012;28;20046;-21
2022/06/16 01:44:46;;;;;;;2.13;1.67;;;20.50;62.70;;;;;;5018027;28;20049;-21
2022/06/16 01:47:14;;;;;;;2.03;1.50;;;20.40;63.10;;;;;;5020775;28;20387;-20
2022/06/16 01:49:48;;;;;;;1.95;1.50;;;20.40;63.00;;;;;;5029761;28;20052;-21
2022/06/16 01:52:18;;;;;;;1.92;1.75;;;20.40;63.00;;;;;;5030826;28;20057;-21
2022/06/16 01:54:49;;;;;;;1.48;1.38;;;20.40;63.10;;;;;;5019462;28;20498;-21
2022/06/16 01:57:25;;;;;;;3.53;1.60;;;20.40;63.20;;;;;;5027250;28;20053;-21
2022/06/16 02:00:13;;;;;;;1.80;1.40;;;20.40;63.70;;;;;;5026884;28;20041;-21
2022/06/16 02:02:39;;;;;;;1.70;1.60;;;20.30;63.80;;;;;;5021575;28;20073;-21
2022/06/16 02:05:09;;;;;;;1.55;1.33;;;20.20;64.00;;;;;;5027429;28;20252;-21
2022/06/16 02:07:42;;;;;;;2.88;1.65;;;20.30;63.90;;;;;;5024913;28;20073;-21
2022/06/16 02:10:13;;;;;;;1.90;1.63;;;20.30;63.90;;;;;;5012961;28;20041;-21
2022/06/16 02:12:57;;;;;;;1.63;1.50;;;20.20;64.30;;;;;;5024195;28;20072;-20
2022/06/16 02:15:34;;;;;;;2.83;1.80;;;20.20;64.60;;;;;;5006528;28;20057;-21
2022/06/16 02:18:00;;;;;;;1.90;1.45;;;20.20;64.60;;;;;;5020745;28;20102;-21
2022/06/16 02:20:29;;;;;;;2.05;1.40;;;20.20;64.70;;;;;;5022328;28;20050;-21
2022/06/16 02:22:57;;;;;;;2.15;1.45;;;20.20;64.60;;;;;;5025199;28;20049;-21
2022/06/16 02:25:23;;;;;;;2.28;1.52;;;20.20;64.70;;;;;;5003817;28;20050;-21
2022/06/16 02:27:48;;;;;;;2.72;1.65;;;20.20;64.90;;;;;;5002236;28;20050;-21
2022/06/16 02:30:14;;;;;;;3.17;1.70;;;20.10;65.00;;;;;;5023316;28;20049;-21
2022/06/16 02:33:01;;;;;;;2.67;1.65;;;20.00;65.20;;;;;;5001163;28;20053;-21
2022/06/16 02:35:43;;;;;;;3.53;1.83;;;20.00;65.30;;;;;;5019436;28;20055;-22
2022/06/16 02:38:46;;;;;;;3.20;1.80;;;20.00;65.20;;;;;;5020773;28;20049;-21
2022/06/16 02:41:30;;;;;;;1.95;1.60;;;20.20;64.90;;;;;;5024065;28;20049;-21
2022/06/16 02:44:28;;;;;;;4.05;1.60;;;20.10;64.90;;;;;;5006204;28;20057;-21
2022/06/16 02:47:14;;;;;;;2.63;1.75;;;20.10;65.80;;;;;;5032618;28;20494;-22
2022/06/16 02:50:02;;;;;;;3.30;1.67;;;20.10;65.10;;;;;;5022579;28;20588;-21
2022/06/16 02:52:39;;;;;;;1.83;1.63;;;20.10;65.30;;;;;;5024421;28;20107;-20
2022/06/16 02:55:21;;;;;;;1.75;1.65;;;20.10;65.00;;;;;;5027390;28;20129;-21
2022/06/16 02:57:48;;;;;;;2.40;1.80;;;20.00;65.30;;;;;;5027775;28;20076;-21
2022/06/16 03:00:19;;;;;;;2.85;2.05;;;19.90;65.60;;;;;;5018611;28;20152;-21
2022/06/16 03:02:45;;;;;;;2.83;1.80;;;19.90;65.90;;;;;;5015317;28;20046;-21
2022/06/16 03:05:12;;;;;;;1.90;1.67;;;19.80;66.00;;;;;;5026235;28;20184;-21
2022/06/16 03:07:38;;;;;;;2.88;1.70;;;19.80;66.30;;;;;;5024751;28;20558;-21
2022/06/16 03:10:04;;;;;;;1.75;1.65;;;19.80;65.90;;;;;;5022663;28;20476;-21
2022/06/16 03:12:30;;;;;;;1.42;1.33;;;19.80;66.10;;;;;;5024554;28;20453;-21
2022/06/16 03:14:55;;;;;;;1.70;1.58;;;19.70;66.30;;;;;;5018188;28;20141;-22
2022/06/16 03:17:21;;;;;;;2.97;2.00;;;19.70;66.30;;;;;;5021272;28;20037;-21
2022/06/16 03:19:47;;;;;;;3.15;1.80;;;19.80;65.90;;;;;;5024875;28;20057;-21
2022/06/16 03:22:12;;;;;;;2.17;1.50;;;19.80;65.90;;;;;;5021033;28;20048;-21
2022/06/16 03:24:38;;;;;;;2.15;1.75;;;19.80;65.80;;;;;;5016825;28;20056;-21
2022/06/16 03:27:05;;;;;;;1.83;1.42;;;19.80;66.20;;;;;;5001322;28;20425;-21
2022/06/16 03:29:30;;;;;;;2.08;1.45;;;19.80;66.20;;;;;;5019609;28;20045;-21
2022/06/16 03:31:56;;;;;;;2.97;1.75;;;19.70;66.50;;;;;;5025328;28;20049;-21
2022/06/16 03:34:22;;;;;;;2.42;2.17;;;19.70;66.50;;;;;;5016935;28;20132;-20
2022/06/16 03:36:48;;;;;;;1.63;1.52;;;19.70;66.50;;;;;;4996305;28;20105;-21
2022/06/16 03:39:13;;;;;;;1.67;1.58;;;19.70;66.70;;;;;;5007957;28;20593;-21
2022/06/16 03:41:39;;;;;;;2.28;1.40;;;19.60;67.30;;;;;;5015955;28;20050;-21
2022/06/16 03:44:05;;;;;;;1.92;1.60;;;19.60;67.80;;;;;;5014410;28;20486;-21
2022/06/16 03:46:30;;;;;;;1.85;1.60;;;19.50;67.80;;;;;;5003123;28;20192;-20
2022/06/16 03:48:56;;;;;;;1.67;1.55;;;19.50;67.80;;;;;;5000211;28;20042;-21
2022/06/16 03:51:22;;;;;;;2.90;1.30;;;19.40;68.30;;;;;;4999416;28;20050;-22
2022/06/16 03:53:47;;;;;;;2.40;1.65;;;19.40;68.60;;;;;;5021609;28;20049;-21
2022/06/16 03:56:13;;;;;;;2.47;1.42;;;19.50;68.20;;;;;;5008624;28;20082;-21
2022/06/16 03:58:39;;;;;;;2.65;1.52;;;19.50;68.20;;;;;;5021157;28;20046;-21
2022/06/16 04:01:05;;;;;;;1.92;1.50;;;19.50;68.50;;;;;;5023929;28;20042;-20
2022/06/16 04:06:15;;;;;;;2.15;1.70;;;19.50;68.20;;;;;;5027964;28;20103;-21
2022/06/16 04:08:41;;;;;;;2.47;1.50;;;19.50;68.50;;;;;;5023006;28;20132;-21
2022/06/16 04:11:48;;;;;;;2.58;1.75;;;19.50;68.60;;;;;;5024902;28;20049;-20
2022/06/16 04:14:09;;;;;;;2.08;1.60;;;19.50;68.70;;;;;;5024775;28;20132;-21
2022/06/16 04:16:39;;;;;;;3.08;1.75;;;19.40;68.70;;;;;;5025006;28;20062;-21
2022/06/16 04:19:05;;;;;;;2.78;1.92;;;19.40;68.70;;;;;;5023750;28;20129;-21
2022/06/16 04:21:31;;;;;;;1.63;1.52;;;19.40;68.60;;;;;;5029574;28;20069;-21
2022/06/16 04:23:57;;;;;;;2.70;1.80;;;19.50;68.60;;;;;;4997929;28;20076;-21
2022/06/16 04:26:23;;;;;;;3.05;1.98;;;19.50;68.60;;;;;;5020410;28;20045;-21
2022/06/16 04:28:48;;;;;;;3.20;1.98;;;19.40;68.90;;;;;;5003964;28;20066;-21
2022/06/16 04:31:14;;;;;;;2.35;1.83;;;19.40;68.90;;;;;;5010058;28;20046;-21
2022/06/16 04:33:40;;;;;;;1.85;1.70;;;19.40;68.70;;;;;;5026612;28;20046;-21
2022/06/16 04:36:06;;;;;;;2.20;1.70;;;19.50;68.70;;;;;;5022908;28;20153;-21
2022/06/16 04:38:32;;;;;;;3.13;2.03;;;19.40;68.90;;;;;;5025691;28;20583;-23
2022/06/16 04:41:00;;;;;;;2.45;2.13;;;19.30;69.10;;;;;;5011480;28;20479;-21
2022/06/16 04:43:26;;;;;;;1.90;1.80;;;19.30;69.00;;;;;;5023779;28;20548;-21
2022/06/16 04:45:52;;;;;;;2.08;1.70;;;19.30;69.20;;;;;;5011380;28;20045;-22
2022/06/16 04:48:17;;;;;;;2.78;1.80;;;19.60;68.40;;;;;;5029411;28;20042;-21
2022/06/16 04:50:43;;;;;;;4.55;2.33;;;19.80;67.30;;;;;;5028319;28;20196;-21
2022/06/16 04:53:09;;;;;;;3.97;2.53;;;19.80;67.30;;;;;;4990001;28;20060;-21
2022/06/16 04:55:34;;;;;;;2.33;2.10;;;19.80;67.30;;;;;;5021591;28;20087;-21
2022/06/16 04:58:01;;;;;;;3.25;2.30;;;19.80;67.10;;;;;;5007056;28;20056;-20
2022/06/16 05:00:27;;;;;;;3.00;2.58;;;19.80;67.20;;;;;;5003400;28;20520;-21
2022/06/16 05:02:53;;;;;;;2.70;2.50;;;19.60;68.00;;;;;;5020697;28;20042;-21
2022/06/16 05:05:18;;;;;;;2.63;2.42;;;19.70;67.90;;;;;;5028063;28;20459;-21
2022/06/16 05:07:44;;;;;;;3.70;2.45;;;19.80;67.70;;;;;;5024666;28;20394;-21
2022/06/16 05:10:11;;;;;;;3.03;2.30;;;19.70;68.00;;;;;;5021435;28;20442;-21
2022/06/16 05:12:37;;;;;;;5.35;2.40;;;19.70;67.90;;;;;;5024383;28;20076;-21
2022/06/16 05:15:03;;;;;;;5.07;2.40;;;19.70;67.50;;;;;;5024913;28;20037;-21
2022/06/16 05:17:29;;;;;;;2.42;2.20;;;19.70;67.60;;;;;;5027826;28;20045;-21
2022/06/16 05:19:54;;;;;;;2.53;2.25;;;19.60;68.50;;;;;;5018802;28;20145;-22
2022/06/16 05:22:20;;;;;;;3.28;2.55;;;19.60;68.50;;;;;;5008203;28;20046;-21
2022/06/16 05:24:46;;;;;;;2.75;2.50;;;19.60;68.40;;;;;;4660052;28;10000049;-21
2022/06/16 05:27:11;;;;;;;3.70;2.88;;;19.60;68.90;;;;;;5008343;28;20132;-21
2022/06/16 05:29:37;;;;;;;3.58;3.20;;;19.60;69.30;;;;;;5022099;28;20073;-21
2022/06/16 05:32:03;;;;;;;3.10;2.78;;;19.60;69.40;;;;;;5024299;28;20034;-20
2022/06/16 05:34:29;;;;;;;4.03;3.13;;;19.40;69.80;;;;;;5017746;28;20056;-21
2022/06/16 05:36:54;;;;;;;4.15;2.83;;;19.50;69.80;;;;;;5002502;28;20049;-21
2022/06/16 05:39:20;;;;;;;4.85;2.88;;;19.50;69.90;;;;;;5015353;28;20053;-21
2022/06/16 05:41:46;;;;;;;2.40;2.05;;;19.50;70.00;;;;;;5026131;28;20122;-21
2022/06/16 05:44:11;;;;;;;9.13;3.47;;;19.50;69.80;;;;;;5025693;28;20141;-21
2022/06/16 05:46:37;;;;;;;8.45;3.42;;;19.40;70.50;;;;;;4997857;28;20050;-21
2022/06/16 05:49:03;;;;;;;3.10;2.67;;;19.40;70.60;;;;;;5004726;28;20049;-21
2022/06/16 05:51:29;;;;;;;4.82;2.92;;;19.40;70.60;;;;;;5024698;28;20521;-21
2022/06/16 05:53:55;;;;;;;2.85;2.58;;;19.50;70.90;;;;;;5006503;28;20414;-20
2022/06/16 05:56:20;;;;;;;3.75;2.90;;;19.50;70.50;;;;;;5024130;28;20045;-21
2022/06/16 05:58:46;;;;;;;4.25;3.13;;;19.50;70.50;;;;;;5026818;28;20136;-21
2022/06/16 06:01:13;;;;;;;4.57;2.47;;;19.50;70.30;;;;;;5028864;28;20577;-21
2022/06/16 06:03:39;;;;;;;3.20;2.60;;;19.50;70.30;;;;;;5020423;28;20052;-21
2022/06/16 06:06:05;;;;;;;2.40;2.20;;;19.60;70.50;;;;;;5028100;28;20041;-21
2022/06/16 06:16:45;;;;;;;2.75;2.35;;;19.70;70.00;;;;;;5027534;28;20104;-21
2022/06/16 06:19:24;;;;;;;2.55;2.35;;;19.60;70.10;;;;;;5008876;28;20046;-21
2022/06/16 06:22:03;;;;;;;3.63;2.00;;;19.60;70.20;;;;;;5026826;28;20041;-21
2022/06/16 06:24:31;;;;;;;5.15;2.55;;;19.70;69.90;;;;;;5022521;28;20107;-22
2022/06/16 06:26:58;;;;;;;3.95;1.98;;;19.80;69.50;;;;;;5022869;28;20121;-21
2022/06/16 06:29:24;;;;;;;2.90;2.03;;;19.80;69.50;;;;;;5023385;28;20065;-21
2022/06/16 06:31:49;;;;;;;3.83;2.38;;;19.70;69.50;;;;;;5016998;28;20076;-21
2022/06/16 06:34:15;;;;;;;2.60;2.13;;;19.80;69.60;;;;;;5025996;28;20573;-21
2022/06/16 06:36:41;;;;;;;4.05;2.17;;;19.80;69.50;;;;;;5024979;28;20042;-22
2022/06/16 06:39:06;;;;;;;2.75;2.10;;;19.80;69.50;;;;;;5023192;28;20041;-21
2022/06/16 06:41:32;;;;;;;2.00;1.70;;;19.80;69.50;;;;;;5017303;28;20522;-21
2022/06/16 06:43:59;;;;;;;2.70;2.30;;;19.80;69.40;;;;;;5006406;28;20047;-21
2022/06/16 06:46:25;;;;;;;2.30;2.05;;;19.80;69.60;;;;;;5019598;28;20057;-22
2022/06/16 06:48:50;;;;;;;2.60;1.80;;;19.80;69.80;;;;;;5023378;28;20046;-21
2022/06/16 06:51:16;;;;;;;2.03;1.80;;;19.80;69.90;;;;;;5020290;28;20085;-21
2022/06/16 06:53:41;;;;;;;2.42;1.85;;;19.80;69.80;;;;;;5022723;28;20505;-21
2022/06/16 06:56:08;;;;;;;3.25;2.00;;;19.90;69.60;;;;;;5022746;28;20042;-21
2022/06/16 06:58:34;;;;;;;1.67;1.58;;;20.00;69.10;;;;;;5020599;28;20052;-21
2022/06/16 07:01:01;;;;;;;3.05;1.83;;;20.10;68.80;;;;;;5018318;28;20558;-21
2022/06/16 07:03:28;;;;;;;2.65;1.63;;;20.20;68.40;;;;;;5022987;28;20061;-21
2022/06/16 07:05:53;;;;;;;1.77;1.30;;;20.30;67.80;;;;;;5022771;28;20052;-21
2022/06/16 07:08:19;;;;;;;1.58;1.33;;;20.30;67.50;;;;;;5020740;28;20152;-21
2022/06/16 07:10:45;;;;;;;2.03;1.35;;;20.40;67.30;;;;;;5004757;28;20056;-21
2022/06/16 07:13:11;;;;;;;1.98;1.35;;;20.40;67.30;;;;;;5007041;28;20154;-21
2022/06/16 07:15:37;;;;;;;1.70;1.05;;;20.50;67.10;;;;;;5008314;28;20065;-22
2022/06/16 07:18:05;;;;;;;1.90;1.00;;;20.50;66.90;;;;;;5020931;28;20617;-22
2022/06/16 07:20:31;;;;;;;3.17;1.30;;;20.50;66.70;;;;;;5021065;28;20057;-21
2022/06/16 07:22:57;;;;;;;3.45;1.30;;;20.60;66.50;;;;;;5004998;28;20056;-21
2022/06/16 07:25:22;;;;;;;1.75;1.40;;;20.60;66.30;;;;;;5021112;28;20041;-21
2022/06/16 07:27:48;;;;;;;1.30;1.20;;;20.60;66.10;;;;;;4988863;28;20041;-21
2022/06/16 07:30:17;;;;;;;2.10;1.27;;;20.70;66.10;;;;;;5005727;28;20497;-21
2022/06/16 07:32:43;;;;;;;1.55;1.35;;;20.70;66.00;;;;;;5020155;28;20050;-21
2022/06/16 07:35:09;;;;;;;2.53;1.50;;;20.70;65.70;;;;;;5016137;28;20101;-21
2022/06/16 07:37:35;;;;;;;1.50;1.40;;;20.70;65.40;;;;;;5020877;28;20096;-21
2022/06/16 07:40:01;;;;;;;1.45;1.35;;;20.80;65.40;;;;;;5019866;28;20049;-21
2022/06/16 07:42:27;;;;;;;2.03;1.08;;;20.80;65.30;;;;;;5026777;28;20081;-22
2022/06/16 07:44:52;;;;;;;1.63;1.20;;;20.80;65.00;;;;;;5009362;28;20056;-22
2022/06/16 07:47:20;;;;;;;1.77;1.02;;;20.90;65.20;;;;;;5017959;28;20053;-21
2022/06/16 07:49:48;;;;;;;1.25;0.90;;;20.90;65.10;;;;;;5023223;28;20038;-22
2022/06/16 07:52:14;;;;;;;0.95;0.90;;;20.90;64.90;;;;;;5013957;28;20065;-21
2022/06/16 07:54:40;;;;;;;3.10;1.15;;;20.90;64.90;;;;;;5021189;28;20516;-21
2022/06/16 07:57:06;;;;;;;1.10;1.00;;;21.00;64.80;;;;;;5022557;28;20107;-21
2022/06/16 07:59:31;;;;;;;3.50;0.90;;;21.00;64.80;;;;;;5021529;28;20068;-22
2022/06/16 08:01:57;;;;;;;0.80;0.80;;;21.00;64.90;;;;;;5022293;28;20140;-22
2022/06/16 08:04:23;;;;;;;1.13;0.93;;;21.00;64.80;;;;;;5026844;28;20042;-22
2022/06/16 08:06:49;;;;;;;1.35;0.90;;;21.00;64.70;;;;;;5021360;28;20067;-22
2022/06/16 08:09:15;;;;;;;1.67;1.02;;;21.00;64.80;;;;;;5030727;28;20353;-21
2022/06/16 08:14:24;;;;;;;0.88;0.70;;;21.10;64.50;;;;;;5018374;28;20084;-22
2022/06/16 08:16:50;;;;;;;0.88;0.80;;;21.10;64.50;;;;;;5022554;28;20045;-27
2022/06/16 08:19:15;;;;;;;1.52;0.90;;;21.10;64.30;;;;;;5022068;28;20468;-21
2022/06/16 08:21:41;;;;;;;1.30;1.20;;;21.10;64.30;;;;;;5024528;28;20049;-21
2022/06/16 08:24:07;;;;;;;0.95;0.95;;;21.20;64.20;;;;;;5021248;28;20072;-21
2022/06/16 08:26:33;;;;;;;1.63;0.90;;;21.20;64.30;;;;;;5023080;28;20062;-21
2022/06/16 08:28:59;;;;;;;0.88;0.88;;;21.30;64.20;;;;;;5026824;28;20045;-21
2022/06/16 08:31:24;;;;;;;6.05;1.05;;;21.40;64.60;;;;;;5021089;28;20053;-21
2022/06/16 08:33:50;;;;;;;1.85;1.15;;;21.40;65.00;;;;;;4996332;28;20041;-21
2022/06/16 08:36:16;;;;;;;0.93;0.70;;;21.40;65.50;;;;;;5012391;28;20056;-22
2022/06/16 08:38:42;;;;;;;0.85;0.80;;;21.40;65.40;;;;;;5016333;28;20065;-21
2022/06/16 08:41:13;;;;;;;2.35;1.30;;;21.50;65.40;;;;;;5024747;28;20094;-21
2022/06/16 08:44:03;;;;;;;2.10;1.00;;;21.50;65.20;;;;;;5022617;28;20202;-21
2022/06/16 08:46:35;;;;;;;2.08;1.27;;;21.60;65.80;;;;;;5019914;28;20084;-22
2022/06/16 08:49:02;;;;;;;1.10;0.75;;;21.70;64.90;;;;;;5013234;28;20160;-21
2022/06/16 08:51:43;;;;;;;1.83;0.85;;;21.60;64.60;;;;;;5021813;28;20037;-21
2022/06/16 08:54:24;;;;;;;2.10;0.93;;;21.60;64.40;;;;;;5023367;28;20041;-21
2022/06/16 08:56:58;;;;;;;1.13;1.02;;;21.70;64.30;;;;;;5024908;28;20430;-21
2022/06/16 08:59:27;;;;;;;1.55;0.90;;;21.70;64.40;;;;;;5021772;28;20099;-21
2022/06/16 09:02:05;;;;;;;1.20;1.00;;;21.70;64.40;;;;;;5026670;28;21446;-21
2022/06/16 09:04:33;;;;;;;1.48;0.80;;;21.70;64.30;;;;;;5023330;28;20090;-21
2022/06/16 09:07:24;;;;;;;0.95;0.90;;;21.70;64.40;;;;;;5022480;28;20041;-21
2022/06/16 09:10:15;;;;;;;3.75;1.05;;;21.70;64.30;;;;;;5028380;28;20125;-22
2022/06/16 09:12:47;;;;;;;1.05;0.82;;;21.70;64.50;;;;;;5023432;28;20275;-24
2022/06/16 09:15:22;;;;;;;1.80;0.80;;;21.70;64.90;;;;;;5026178;28;20050;-23
2022/06/16 09:17:58;;;;;;;0.80;0.80;;;21.80;64.30;;;;;;5025881;28;20054;-23
2022/06/16 09:20:42;;;;;;;1.25;0.90;;;21.80;64.50;;;;;;5007522;28;20068;-25
2022/06/16 09:23:16;;;;;;;0.93;0.70;;;21.80;64.50;;;;;;5024044;28;20116;-22
2022/06/16 09:25:50;;;;;;;1.58;0.82;;;21.80;64.20;;;;;;5027546;28;20043;-25
2022/06/16 09:28:39;;;;;;;0.68;0.68;;;21.80;64.30;;;;;;5021973;28;20064;-26
2022/06/16 09:31:09;;;;;;;0.80;0.80;;;21.80;64.00;;;;;;5031574;28;20124;-25
2022/06/16 09:33:37;;;;;;;0.60;0.60;;;21.90;64.00;;;;;;5006902;28;20037;-24
2022/06/16 09:36:09;;;;;;;2.08;0.77;;;21.90;64.10;;;;;;5026273;28;20099;-25
2022/06/16 09:39:03;;;;;;;0.65;0.65;;;21.90;63.60;;;;;;5021682;28;20042;-24
2022/06/16 09:44:44;;;;;;;0.90;0.70;;;21.90;64.10;;;;;;5022274;28;20040;-25
2022/06/16 09:47:12;;;;;;;0.70;0.70;;;21.90;64.10;;;;;;5027741;28;20067;-25
2022/06/16 09:49:47;;;;;;;0.77;0.50;;;21.90;63.90;;;;;;5017836;28;20067;-25
2022/06/16 09:52:22;;;;;;;2.10;0.50;;;21.90;64.10;;;;;;5020081;28;20195;-24
2022/06/16 09:54:51;;;;;;;0.77;0.77;;;21.90;63.90;;;;;;5025186;28;20068;-26
2022/06/16 09:57:19;;;;;;;0.60;0.60;;;21.90;63.90;;;;;;5019807;28;20132;-25
2022/06/16 09:59:56;;;;;;;1.17;0.90;;;21.90;63.80;;;;;;5030054;28;20049;-25
2022/06/16 10:02:24;;;;;;;0.60;0.60;;;21.90;63.80;;;;;;5022323;28;20051;-25
2022/06/16 10:04:50;;;;;;;0.80;0.80;;;21.90;63.70;;;;;;5018807;28;20390;-25
2022/06/16 10:07:27;;;;;;;0.60;0.60;;;22.00;63.70;;;;;;5024849;28;20084;-24
2022/06/16 10:10:35;;;;;;;0.60;0.60;;;22.00;63.70;;;;;;5012597;28;20048;-24
2022/06/16 10:13:25;;;;;;;0.60;0.60;;;22.00;63.80;;;;;;4984567;28;20173;-24
2022/06/16 10:16:16;;;;;;;0.60;0.60;;;22.00;63.70;;;;;;5027440;28;20045;-24
2022/06/16 10:18:42;;;;;;;0.63;0.63;;;22.00;63.60;;;;;;4670497;28;9999909;-25
2022/06/16 10:21:08;;;;;;;0.50;0.50;;;22.10;63.30;;;;;;5023769;28;20048;-25
2022/06/16 10:23:48;;;;;;;0.63;0.60;;;22.10;63.30;;;;;;4992029;28;20037;-24
2022/06/16 10:26:14;;;;;;;0.75;0.68;;;22.20;63.00;;;;;;5022710;28;20093;-24
2022/06/16 10:28:48;;;;;;;0.57;0.55;;;22.20;62.90;;;;;;5022268;28;20053;-25
2022/06/16 10:31:52;;;;;;;0.70;0.60;;;22.30;62.80;;;;;;5022424;28;20045;-25
2022/06/16 10:34:29;;;;;;;0.40;0.40;;;22.30;62.40;;;;;;5020672;28;20069;-24
2022/06/16 10:37:21;;;;;;;0.32;0.32;;;22.30;62.40;;;;;;5020558;28;20098;-26
2022/06/16 10:39:54;;;;;;;1.70;0.68;;;22.30;62.70;;;;;;5017257;28;20121;-26
2022/06/16 10:42:26;;;;;;;0.57;0.57;;;22.30;62.80;;;;;;4670206;28;10000202;-30
2022/06/16 10:44:57;;;;;;;0.73;0.73;;;22.30;63.00;;;;;;5024467;28;20033;-24
2022/06/16 10:47:34;;;;;;;0.70;0.70;;;22.30;62.90;;;;;;5025162;28;20124;-24
2022/06/16 10:50:01;;;;;;;0.45;0.45;;;22.30;63.00;;;;;;5013353;28;20040;-25
2022/06/16 10:52:39;;;;;;;2.05;0.60;;;22.30;62.80;;;;;;5004758;28;20147;-25
2022/06/16 10:55:10;;;;;;;0.60;0.45;;;22.30;62.90;;;;;;5018788;28;20061;-24
2022/06/16 10:57:47;;;;;;;0.77;0.77;;;22.20;63.00;;;;;;5016367;28;20529;-25
2022/06/16 11:00:18;;;;;;;0.80;0.50;;;22.30;63.00;;;;;;5020786;28;20050;-25
2022/06/16 11:02:57;;;;;;;1.05;0.60;;;22.30;62.80;;;;;;5017926;28;20053;-25
2022/06/16 11:05:23;;;;;;;1.45;0.50;;;22.30;63.20;;;;;;5016535;28;20060;-24
2022/06/16 11:07:49;;;;;;;0.80;0.70;;;22.30;63.00;;;;;;5003135;28;20037;-24
2022/06/16 11:10:31;;;;;;;1.00;0.65;;;22.30;63.20;;;;;;5016102;28;20217;-24
2022/06/16 11:12:57;;;;;;;0.68;0.60;;;22.30;63.30;;;;;;5042660;28;20101;-25
2022/06/16 11:15:35;;;;;;;1.13;0.43;;;22.30;62.90;;;;;;5013138;28;20067;-25
2022/06/16 11:18:02;;;;;;;0.60;0.60;;;22.30;63.10;;;;;;5024689;28;20320;-24
2022/06/16 11:20:41;;;;;;;1.58;0.60;;;22.30;62.80;;;;;;5018180;28;20435;-24
2022/06/16 11:23:22;;;;;;;2.15;0.55;;;22.40;62.60;;;;;;5018852;28;20050;-24
2022/06/16 11:26:09;;;;;;;0.88;0.70;;;22.40;62.70;;;;;;5021877;28;20132;-24
2022/06/16 11:28:46;;;;;;;0.60;0.60;;;22.40;62.60;;;;;;5012035;28;20038;-24
2022/06/16 11:31:21;;;;;;;0.63;0.60;;;22.40;62.60;;;;;;5010101;28;20042;-24
2022/06/16 11:36:50;;;;;;;1.40;0.40;;;22.40;62.60;;;;;;5025197;28;20541;-24
2022/06/16 11:39:43;;;;;;;0.60;0.60;;;22.30;63.00;;;;;;5026395;28;20482;-23
2022/06/16 11:42:51;;;;;;;1.20;0.60;;;22.30;63.10;;;;;;5021644;28;20445;-25
2022/06/16 11:45:43;;;;;;;1.13;0.60;;;22.40;63.00;;;;;;5003120;28;20082;-24
2022/06/16 11:48:16;;;;;;;0.73;0.73;;;22.40;63.00;;;;;;5004817;28;20421;-25
2022/06/16 11:50:46;;;;;;;0.80;0.70;;;22.40;63.10;;;;;;5003935;28;20135;-24
2022/06/16 11:53:33;;;;;;;0.90;0.90;;;22.40;63.00;;;;;;4997896;28;20045;-24
2022/06/16 11:56:30;;;;;;;1.73;0.73;;;22.40;62.90;;;;;;5013211;28;20049;-24
2022/06/16 11:59:17;;;;;;;0.82;0.68;;;22.50;62.90;;;;;;5005016;28;20053;-24
2022/06/16 12:01:47;;;;;;;1.17;0.60;;;22.40;62.80;;;;;;5002344;28;20060;-24
2022/06/16 12:04:34;;;;;;;0.90;0.65;;;22.50;62.80;;;;;;4997359;28;20063;-24
2022/06/16 12:07:13;;;;;;;0.75;0.68;;;22.50;62.80;;;;;;4999411;28;20077;-24
2022/06/16 12:09:42;;;;;;;0.52;0.52;;;22.50;62.70;;;;;;5002341;28;20150;-24
2022/06/16 12:12:14;;;;;;;0.43;0.43;;;22.50;62.60;;;;;;5026356;28;20049;-24
2022/06/16 12:14:45;;;;;;;0.80;0.50;;;22.60;62.50;;;;;;5019263;28;20360;-23
2022/06/16 12:17:19;;;;;;;0.70;0.70;;;22.60;62.50;;;;;;5025290;28;20046;-24
2022/06/16 12:19:44;;;;;;;0.30;0.30;;;22.60;62.50;;;;;;5020803;28;20049;-24
2022/06/16 12:22:38;;;;;;;0.50;0.50;;;22.60;62.60;;;;;;5024743;28;20391;-24
2022/06/16 12:25:17;;;;;;;0.50;0.50;;;22.60;62.30;;;;;;5019520;28;20034;-24
2022/06/16 12:27:43;;;;;;;0.40;0.40;;;22.60;62.20;;;;;;5011766;28;20050;-23
2022/06/16 12:30:10;;;;;;;0.60;0.60;;;22.60;62.30;;;;;;5030823;28;20034;-24
2022/06/16 12:32:50;;;;;;;1.08;0.98;;;22.70;62.30;;;;;;5026061;28;20037;-24
2022/06/16 12:35:30;;;;;;;0.85;0.60;;;22.70;62.40;;;;;;5027443;28;20091;-23
2022/06/16 12:38:17;;;;;;;0.60;0.60;;;22.60;62.30;;;;;;5019496;28;20042;-23
2022/06/16 12:40:49;;;;;;;0.85;0.70;;;22.70;62.30;;;;;;5040511;28;20041;-23
2022/06/16 12:43:38;;;;;;;0.50;0.50;;;22.70;62.40;;;;;;5006489;28;20042;-24
2022/06/16 12:46:09;;;;;;;1.23;0.40;;;22.70;62.30;;;;;;5024423;28;20033;-23
2022/06/16 12:48:53;;;;;;;0.40;0.40;;;22.70;62.30;;;;;;5026817;28;20510;-22
2022/06/16 12:51:20;;;;;;;0.50;0.50;;;22.70;62.30;;;;;;5032323;28;20061;-23
2022/06/16 12:53:59;;;;;;;0.50;0.40;;;22.70;62.10;;;;;;5022694;28;20125;-23
2022/06/16 12:56:51;;;;;;;1.50;0.43;;;22.90;61.90;;;;;;5025885;28;20041;-23
2022/06/16 12:59:32;;;;;;;0.40;0.40;;;22.80;61.70;;;;;;5022783;28;20042;-23
2022/06/16 13:01:58;;;;;;;0.60;0.60;;;22.80;61.90;;;;;;5026836;28;20052;-23
2022/06/16 13:04:26;;;;;;;0.65;0.65;;;22.80;61.80;;;;;;5005581;28;20045;-23
2022/06/16 13:06:52;;;;;;;0.43;0.40;;;22.80;62.00;;;;;;5023051;28;20045;-24
2022/06/16 13:09:18;;;;;;;0.50;0.50;;;22.70;62.00;;;;;;5026256;28;20161;-24
2022/06/16 13:11:46;;;;;;;0.75;0.50;;;22.70;62.00;;;;;;5004389;28;20134;-24
2022/06/16 13:14:14;;;;;;;0.50;0.50;;;22.80;62.00;;;;;;5029037;28;20498;-24
2022/06/16 13:16:41;;;;;;;0.40;0.40;;;22.80;61.90;;;;;;5023354;28;20124;-23
2022/06/16 13:19:11;;;;;;;0.57;0.57;;;22.80;62.00;;;;;;5022542;28;20050;-23
2022/06/16 13:21:59;;;;;;;0.70;0.63;;;22.80;62.00;;;;;;5025755;28;20073;-24
2022/06/16 13:24:35;;;;;;;0.50;0.50;;;22.80;61.90;;;;;;5023195;28;20549;-22
2022/06/16 13:27:10;;;;;;;1.75;0.40;;;22.80;62.00;;;;;;5025089;28;20080;-23
2022/06/16 13:30:05;;;;;;;0.50;0.50;;;22.80;61.90;;;;;;5025097;28;20053;-24
2022/06/16 13:32:36;;;;;;;0.57;0.57;;;22.80;61.90;;;;;;5013263;28;20178;-23